createdAt,value
2023-01-22T00:01:24.803Z,16.88
2023-01-22T00:03:53.364Z,15.73
2023-01-22T00:06:21.322Z,12.95
2023-01-22T00:08:48.324Z,13.32
2023-01-22T00:11:16.145Z,15.18
2023-01-22T00:13:43.259Z,14.23
2023-01-22T00:16:13.021Z,15.80
2023-01-22T00:18:39.890Z,15.63
2023-01-22T00:21:06.991Z,14.68
2023-01-22T00:23:35.076Z,14.38
2023-01-22T00:26:13.699Z,12.95
2023-01-22T00:28:41.799Z,12.70
2023-01-22T00:31:10.110Z,15.55
2023-01-22T00:33:38.620Z,12.77
2023-01-22T00:36:07.749Z,16.90
2023-01-22T00:38:34.771Z,20.38
2023-01-22T00:41:02.711Z,13.38
2023-01-22T00:43:30.312Z,12.70
2023-01-22T00:45:57.036Z,15.50
2023-01-22T00:48:23.707Z,10.88
2023-01-22T00:50:50.454Z,13.73
2023-01-22T00:53:18.342Z,14.20
2023-01-22T00:55:55.357Z,15.27
2023-01-22T00:58:22.538Z,14.55
2023-01-22T01:00:49.618Z,14.95
2023-01-22T01:03:30.251Z,15.45
2023-01-22T01:06:00.708Z,13.77
2023-01-22T01:08:29.251Z,11.65
2023-01-22T01:11:00.623Z,15.23
2023-01-22T01:13:28.673Z,16.02
2023-01-22T01:16:04.580Z,12.25
2023-01-22T01:18:31.745Z,15.38
2023-01-22T01:20:59.991Z,18.65
2023-01-22T01:23:28.197Z,12.95
2023-01-22T01:25:56.791Z,12.63
2023-01-22T01:28:24.929Z,15.45
2023-01-22T01:30:51.831Z,14.60
2023-01-22T01:33:18.505Z,13.27
2023-01-22T01:35:45.164Z,12.95
2023-01-22T01:38:11.842Z,17.77
2023-01-22T01:40:43.749Z,12.27
2023-01-22T01:43:17.446Z,12.48
2023-01-22T01:45:44.655Z,15.23
2023-01-22T01:48:46.865Z,13.77
2023-01-22T01:51:25.517Z,17.50
2023-01-22T01:53:52.310Z,16.25
2023-01-22T01:56:26.919Z,13.23
2023-01-22T01:58:57.567Z,13.35
2023-01-22T02:01:24.580Z,14.50
2023-01-22T02:03:51.390Z,16.67
2023-01-22T02:06:19.925Z,12.25
2023-01-22T02:08:48.487Z,12.75
2023-01-22T02:11:16.590Z,16.10
2023-01-22T02:13:51.521Z,15.02
2023-01-22T02:16:18.937Z,16.10
2023-01-22T02:18:45.612Z,18.77
2023-01-22T02:21:44.829Z,18.20
2023-01-22T02:24:14.273Z,20.05
2023-01-22T02:26:42.712Z,17.20
2023-01-22T02:29:11.475Z,17.15
2023-01-22T02:31:39.388Z,18.70
2023-01-22T02:34:09.059Z,15.45
2023-01-22T02:36:37.392Z,19.85
2023-01-22T02:39:06.164Z,19.20
2023-01-22T02:41:33.271Z,21.38
2023-01-22T02:44:00.001Z,19.55
2023-01-22T02:46:28.965Z,12.20
2023-01-22T02:48:55.653Z,18.08
2023-01-22T02:51:22.384Z,23.33
2023-01-22T02:53:52.821Z,19.42
2023-01-22T02:56:20.022Z,14.27
2023-01-22T02:58:46.700Z,18.25
2023-01-22T03:01:23.437Z,18.08
2023-01-22T03:03:59.603Z,16.13
2023-01-22T03:06:28.422Z,21.27
2023-01-22T03:08:59.747Z,19.33
2023-01-22T03:11:28.300Z,20.88
2023-01-22T03:14:14.307Z,13.98
2023-01-22T03:16:59.920Z,18.52
2023-01-22T03:19:45.436Z,13.52
2023-01-22T03:22:12.401Z,15.43
2023-01-22T03:24:39.113Z,20.05
2023-01-22T03:27:05.876Z,19.15
2023-01-22T03:29:32.614Z,18.02
2023-01-22T03:31:59.384Z,20.38
2023-01-22T03:34:26.724Z,16.55
2023-01-22T03:36:53.418Z,15.45
2023-01-22T03:39:20.198Z,15.13
2023-01-22T03:41:46.886Z,13.07
2023-01-22T03:44:14.354Z,17.85
2023-01-22T03:46:41.310Z,16.90
2023-01-22T03:49:08.655Z,21.02
2023-01-22T03:51:35.725Z,14.48
2023-01-22T03:54:02.442Z,14.77
2023-01-22T03:56:29.502Z,15.25
2023-01-22T03:58:56.568Z,16.70
2023-01-22T04:01:25.601Z,14.13
2023-01-22T04:03:53.103Z,17.30
2023-01-22T04:06:20.633Z,16.60
2023-01-22T04:08:50.100Z,11.70
2023-01-22T04:11:17.291Z,12.48
2023-01-22T04:13:45.017Z,15.20
2023-01-22T04:16:12.471Z,11.80
2023-01-22T04:18:39.459Z,16.20
2023-01-22T04:21:06.163Z,16.27
2023-01-22T04:23:32.943Z,15.10
2023-01-22T04:25:59.719Z,14.38
2023-01-22T04:28:26.375Z,10.52
2023-01-22T04:30:54.743Z,14.38
2023-01-22T04:33:21.685Z,13.13
2023-01-22T04:35:52.683Z,15.35
2023-01-22T04:38:19.504Z,14.85
2023-01-22T04:40:46.238Z,19.92
2023-01-22T04:43:13.427Z,15.90
2023-01-22T04:45:40.281Z,19.17
2023-01-22T04:48:08.621Z,10.77
2023-01-22T04:50:35.685Z,12.48
2023-01-22T04:53:03.094Z,12.80
2023-01-22T04:55:30.098Z,15.93
2023-01-22T04:57:58.657Z,11.93
2023-01-22T05:00:26.251Z,15.50
2023-01-22T05:02:57.557Z,13.93
2023-01-22T05:05:24.302Z,13.63
2023-01-22T05:07:50.984Z,18.48
2023-01-22T05:10:17.945Z,16.48
2023-01-22T05:12:45.283Z,21.48
2023-01-22T05:15:23.088Z,20.60
2023-01-22T05:17:50.674Z,15.13
2023-01-22T05:20:18.800Z,11.93
2023-01-22T05:22:45.643Z,16.45
2023-01-22T05:25:12.657Z,21.20
2023-01-22T05:27:39.462Z,16.85
2023-01-22T05:30:07.330Z,15.02
2023-01-22T05:32:33.999Z,14.13
2023-01-22T05:35:00.710Z,15.13
2023-01-22T05:37:27.405Z,15.20
2023-01-22T05:39:54.528Z,14.27
2023-01-22T05:42:21.277Z,20.48
2023-01-22T05:44:48.318Z,15.90
2023-01-22T05:47:15.337Z,14.82
2023-01-22T05:49:42.270Z,30.13
2023-01-22T05:52:11.011Z,14.20
2023-01-22T05:54:40.725Z,20.33
2023-01-22T05:57:07.555Z,21.90
2023-01-22T05:59:34.277Z,17.05
2023-01-22T06:02:01.363Z,23.05
2023-01-22T06:04:29.420Z,14.80
2023-01-22T06:06:56.118Z,14.13
2023-01-22T06:09:22.879Z,13.52
2023-01-22T06:11:49.872Z,17.08
2023-01-22T06:14:16.673Z,19.50
2023-01-22T06:16:43.470Z,19.23
2023-01-22T06:19:12.630Z,13.98
2023-01-22T06:24:06.223Z,14.52
2023-01-22T06:26:34.003Z,13.70
2023-01-22T06:29:00.745Z,14.70
2023-01-22T06:31:27.534Z,15.35
2023-01-22T06:33:54.924Z,14.07
2023-01-22T06:36:21.805Z,15.77
2023-01-22T06:38:48.449Z,14.63
2023-01-22T06:41:15.161Z,16.30
2023-01-22T06:43:41.803Z,11.00
2023-01-22T06:46:08.574Z,15.18
2023-01-22T06:48:35.319Z,16.88
2023-01-22T06:51:02.071Z,13.18
2023-01-22T06:53:30.379Z,19.00
2023-01-22T06:55:59.877Z,18.67
2023-01-22T06:58:26.564Z,24.55
2023-01-22T07:00:53.303Z,18.40
2023-01-22T07:03:20.366Z,15.80
2023-01-22T07:05:47.068Z,19.90
2023-01-22T07:08:15.570Z,15.57
2023-01-22T07:10:42.420Z,18.65
2023-01-22T07:13:10.494Z,19.52
2023-01-22T07:15:37.371Z,21.00
2023-01-22T07:18:04.128Z,16.90
2023-01-22T07:20:30.810Z,17.75
2023-01-22T07:23:00.237Z,14.70
2023-01-22T07:25:27.679Z,14.32
2023-01-22T07:28:01.463Z,21.92
2023-01-22T07:30:28.425Z,15.15
2023-01-22T07:32:59.808Z,14.27
2023-01-22T07:35:27.481Z,15.95
2023-01-22T07:37:55.269Z,18.65
2023-01-22T07:40:24.714Z,21.40
2023-01-22T07:42:52.187Z,14.90
2023-01-22T07:45:19.836Z,14.55
2023-01-22T07:47:59.857Z,17.83
2023-01-22T07:50:28.928Z,19.13
2023-01-22T07:52:56.267Z,20.20
2023-01-22T07:55:23.384Z,23.52
2023-01-22T07:58:00.779Z,17.88
2023-01-22T08:00:27.615Z,20.73
2023-01-22T08:02:54.400Z,19.70
2023-01-22T08:05:21.187Z,20.98
2023-01-22T08:07:47.861Z,18.17
2023-01-22T08:10:15.262Z,18.88
2023-01-22T08:12:46.315Z,22.65
2023-01-22T08:15:13.984Z,21.60
2023-01-22T08:17:43.380Z,21.13
2023-01-22T08:20:12.518Z,18.02
2023-01-22T08:25:06.084Z,29.33
2023-01-22T08:27:35.191Z,22.05
2023-01-22T08:32:29.372Z,15.32
2023-01-22T08:34:56.276Z,15.52
2023-01-22T08:37:23.582Z,19.75
2023-01-22T08:39:50.340Z,18.77
2023-01-22T08:42:17.079Z,16.77
2023-01-22T08:44:43.756Z,18.75
2023-01-22T08:47:11.626Z,21.52
2023-01-22T08:49:38.555Z,13.57
2023-01-22T08:52:05.897Z,17.33
2023-01-22T08:54:32.626Z,17.92
2023-01-22T08:56:59.492Z,19.65
2023-01-22T08:59:26.446Z,18.48
2023-01-22T09:01:53.221Z,15.75
2023-01-22T09:04:20.031Z,15.77
2023-01-22T09:06:47.089Z,14.70
2023-01-22T09:09:13.794Z,18.15
2023-01-22T09:11:40.953Z,19.65
2023-01-22T09:14:09.803Z,27.13
2023-01-22T09:16:37.162Z,17.65
2023-01-22T09:19:04.860Z,17.08
2023-01-22T09:21:33.364Z,21.33
2023-01-22T09:24:00.770Z,15.27
2023-01-22T09:26:27.550Z,18.15
2023-01-22T09:28:54.218Z,22.95
2023-01-22T09:31:20.968Z,17.83
2023-01-22T09:33:47.634Z,18.67
2023-01-22T09:36:16.151Z,24.25
2023-01-22T09:38:43.508Z,18.70
2023-01-22T09:41:20.550Z,26.23
2023-01-22T09:44:14.060Z,20.00
2023-01-22T09:46:49.101Z,21.95
2023-01-22T09:49:20.045Z,21.38
2023-01-22T09:51:58.334Z,17.13
2023-01-22T09:54:26.083Z,15.32
2023-01-22T09:56:54.499Z,17.95
2023-01-22T09:59:23.976Z,23.48
2023-01-22T10:01:53.694Z,15.85
2023-01-22T10:04:54.043Z,20.65
2023-01-22T10:07:36.900Z,21.63
2023-01-22T10:10:30.203Z,21.38
2023-01-22T10:13:18.918Z,18.98
2023-01-22T10:15:46.489Z,27.13
2023-01-22T10:18:44.114Z,22.13
2023-01-22T10:21:31.890Z,21.80
2023-01-22T10:23:59.151Z,20.63
2023-01-22T10:26:41.196Z,19.50
2023-01-22T10:29:21.288Z,15.32
2023-01-22T10:31:52.242Z,22.30
2023-01-22T10:34:32.638Z,24.15
2023-01-22T10:37:02.466Z,30.63
2023-01-22T10:39:43.146Z,29.38
2023-01-22T10:42:35.966Z,24.95
2023-01-22T10:45:19.688Z,25.90
2023-01-22T10:47:46.484Z,20.45
2023-01-22T10:50:15.335Z,21.15
2023-01-22T10:52:51.338Z,20.85
2023-01-22T10:55:22.743Z,27.25
2023-01-22T10:57:55.135Z,27.85
2023-01-22T11:00:46.423Z,21.45
2023-01-22T11:03:42.536Z,23.98
2023-01-22T11:06:33.284Z,23.40
2023-01-22T11:09:07.099Z,20.42
2023-01-22T11:11:40.348Z,25.55
2023-01-22T11:14:31.235Z,25.33
2023-01-22T11:17:05.045Z,25.48
2023-01-22T11:19:40.332Z,28.15
2023-01-22T11:22:21.999Z,23.42
2023-01-22T11:24:49.007Z,26.30
2023-01-22T11:27:27.820Z,25.83
2023-01-22T11:30:19.145Z,18.05
2023-01-22T11:33:02.013Z,17.60
2023-01-22T11:38:43.161Z,24.95
2023-01-22T11:41:26.227Z,17.55
2023-01-22T11:44:03.967Z,21.92
2023-01-22T11:46:45.789Z,19.10
2023-01-22T11:49:30.848Z,24.27
2023-01-22T11:52:26.774Z,20.42
2023-01-22T11:55:21.103Z,18.38
2023-01-22T11:58:11.413Z,26.55
2023-01-22T12:01:02.452Z,22.52
2023-01-22T12:03:48.793Z,29.00
2023-01-22T12:06:27.630Z,24.40
2023-01-22T12:09:06.209Z,19.25
2023-01-22T12:11:51.189Z,23.27
2023-01-22T12:14:21.106Z,22.65
2023-01-22T12:17:06.688Z,28.65
2023-01-22T12:19:46.037Z,20.00
2023-01-22T12:22:43.805Z,15.73
2023-01-22T12:25:36.818Z,20.17
2023-01-22T12:28:28.249Z,19.23
2023-01-22T12:31:05.115Z,29.60
2023-01-22T12:33:39.184Z,22.98
2023-01-22T12:36:07.049Z,20.88
2023-01-22T12:38:50.859Z,19.80
2023-01-22T12:41:39.184Z,23.23
2023-01-22T12:44:44.886Z,19.90
2023-01-22T12:47:45.207Z,24.48
2023-01-22T12:50:20.645Z,21.45
2023-01-22T12:53:04.545Z,22.10
2023-01-22T12:55:38.215Z,25.13
2023-01-22T12:58:05.267Z,25.42
2023-01-22T13:00:34.976Z,17.48
2023-01-22T13:03:31.624Z,32.30
2023-01-22T13:05:59.933Z,16.80
2023-01-22T13:08:46.905Z,21.95
2023-01-22T13:11:26.800Z,23.27
2023-01-22T13:14:16.659Z,27.65
2023-01-22T13:16:57.795Z,24.30
2023-01-22T13:19:45.764Z,22.85
2023-01-22T13:22:23.745Z,25.17
2023-01-22T13:24:54.124Z,26.27
2023-01-22T13:27:32.988Z,26.05
2023-01-22T13:30:18.600Z,23.38
2023-01-22T13:32:45.501Z,27.73
2023-01-22T13:35:15.097Z,25.02
2023-01-22T13:37:44.123Z,26.98
2023-01-22T13:40:42.730Z,24.95
2023-01-22T13:43:19.294Z,17.92
2023-01-22T13:45:46.284Z,24.98
2023-01-22T13:48:17.573Z,22.35
2023-01-22T13:50:59.616Z,24.35
2023-01-22T13:53:34.067Z,18.58
2023-01-22T13:56:01.304Z,19.73
2023-01-22T13:58:49.593Z,25.33
2023-01-22T14:01:34.840Z,28.48
2023-01-22T14:04:07.846Z,24.95
2023-01-22T14:06:49.463Z,23.65
2023-01-22T14:09:30.684Z,28.85
2023-01-22T14:11:58.206Z,22.35
2023-01-22T14:14:25.293Z,29.38
2023-01-22T14:16:52.358Z,23.88
2023-01-22T14:19:19.354Z,28.40
2023-01-22T14:21:46.102Z,35.92
2023-01-22T14:24:12.893Z,20.63
2023-01-22T14:26:39.587Z,23.23
2023-01-22T14:29:07.214Z,29.45
2023-01-22T14:31:33.948Z,25.40
2023-01-22T14:34:00.729Z,28.27
2023-01-22T14:36:27.393Z,27.52
2023-01-22T14:38:55.456Z,29.15
2023-01-22T14:41:22.135Z,27.33
2023-01-22T14:43:50.009Z,28.23
2023-01-22T14:46:16.747Z,25.00
2023-01-22T14:48:43.410Z,23.85
2023-01-22T14:51:11.610Z,22.45
2023-01-22T14:53:38.656Z,36.10
2023-01-22T14:56:05.697Z,54.25
2023-01-22T14:58:32.413Z,25.77
2023-01-22T15:00:59.146Z,22.10
2023-01-22T15:03:29.306Z,26.38
2023-01-22T15:05:55.993Z,23.48
2023-01-22T15:08:22.847Z,23.88
2023-01-22T15:10:49.517Z,29.63
2023-01-22T15:13:16.289Z,35.10
2023-01-22T15:15:43.058Z,31.30
2023-01-22T15:18:09.809Z,31.10
2023-01-22T15:20:36.511Z,31.77
2023-01-22T15:23:03.193Z,29.02
2023-01-22T15:25:29.951Z,28.42
2023-01-22T15:27:56.579Z,28.52
2023-01-22T15:30:23.509Z,23.92
2023-01-22T15:32:50.315Z,29.27
2023-01-22T15:35:17.142Z,29.10
2023-01-22T15:37:43.867Z,25.15
2023-01-22T15:40:11.343Z,35.33
2023-01-22T15:42:38.049Z,29.73
2023-01-22T15:45:05.709Z,32.20
2023-01-22T15:47:32.460Z,33.67
2023-01-22T15:49:59.165Z,35.70
2023-01-22T15:52:25.875Z,27.30
2023-01-22T15:54:54.012Z,29.70
2023-01-22T15:57:20.918Z,30.70
2023-01-22T15:59:47.674Z,26.10
2023-01-22T16:02:14.486Z,28.33
2023-01-22T16:04:41.226Z,30.00
2023-01-22T16:07:07.909Z,25.02
2023-01-22T16:09:34.631Z,27.88
2023-01-22T16:12:01.339Z,28.27
2023-01-22T16:14:29.503Z,26.13
2023-01-22T16:16:56.383Z,28.38
2023-01-22T16:19:23.156Z,28.73
2023-01-22T16:21:49.908Z,29.30
2023-01-22T16:24:16.820Z,23.60
2023-01-22T16:26:43.545Z,31.00
2023-01-22T16:29:10.421Z,27.17
2023-01-22T16:31:37.609Z,28.65
2023-01-22T16:34:13.374Z,31.85
2023-01-22T16:36:41.180Z,30.42
2023-01-22T16:39:08.300Z,28.42
2023-01-22T16:41:36.153Z,34.60
2023-01-22T16:44:11.569Z,30.67
2023-01-22T16:49:18.419Z,29.30
2023-01-22T16:52:03.172Z,27.25
2023-01-22T16:54:37.896Z,21.48
2023-01-22T16:57:07.065Z,30.77
2023-01-22T16:59:35.154Z,34.45
2023-01-22T17:02:03.304Z,41.85
2023-01-22T17:04:30.069Z,29.45
2023-01-22T17:07:00.139Z,27.02
2023-01-22T17:09:32.184Z,28.77
2023-01-22T17:12:01.629Z,29.20
2023-01-22T17:14:30.685Z,32.40
2023-01-22T17:16:58.176Z,20.40
2023-01-22T17:19:25.387Z,25.38
2023-01-22T17:22:01.842Z,20.65
2023-01-22T17:24:29.913Z,21.88
2023-01-22T17:27:02.650Z,26.63
2023-01-22T17:29:35.034Z,27.88
2023-01-22T17:32:05.823Z,22.23
2023-01-22T17:34:32.619Z,24.67
2023-01-22T17:36:59.287Z,26.08
2023-01-22T17:39:26.189Z,25.05
2023-01-22T17:41:52.883Z,28.45
2023-01-22T17:44:19.762Z,21.30
2023-01-22T17:46:49.218Z,19.02
2023-01-22T17:49:16.064Z,24.67
2023-01-22T17:51:43.459Z,22.90
2023-01-22T17:54:10.399Z,34.90
2023-01-22T17:56:40.196Z,18.27
2023-01-22T17:59:07.271Z,22.73
2023-01-22T18:01:36.098Z,24.92
2023-01-22T18:04:06.727Z,29.85
2023-01-22T18:06:34.207Z,25.50
2023-01-22T18:09:01.049Z,26.30
2023-01-22T18:11:29.582Z,29.92
2023-01-22T18:14:00.354Z,25.90
2023-01-22T18:16:29.610Z,32.00
2023-01-22T18:18:57.279Z,29.85
2023-01-22T18:21:24.299Z,26.40
2023-01-22T18:23:52.350Z,27.58
2023-01-22T18:26:22.892Z,25.02
2023-01-22T18:28:50.763Z,26.00
2023-01-22T18:31:19.225Z,26.50
2023-01-22T18:33:48.269Z,26.95
2023-01-22T18:36:18.036Z,25.10
2023-01-22T18:38:44.795Z,25.13
2023-01-22T18:41:15.427Z,25.85
2023-01-22T18:43:42.498Z,21.50
2023-01-22T18:46:11.997Z,26.13
2023-01-22T18:48:42.391Z,26.55
2023-01-22T18:51:13.349Z,26.92
2023-01-22T18:53:41.363Z,22.88
2023-01-22T18:56:09.908Z,28.80
2023-01-22T18:58:37.887Z,30.63
2023-01-22T19:01:19.465Z,24.33
2023-01-22T19:03:49.239Z,24.65
2023-01-22T19:06:18.064Z,27.05
2023-01-22T19:08:49.127Z,21.63
2023-01-22T19:11:16.619Z,24.33
2023-01-22T19:13:44.998Z,27.48
2023-01-22T19:16:14.385Z,28.55
2023-01-22T19:18:42.626Z,24.02
2023-01-22T19:21:16.420Z,22.05
2023-01-22T19:23:47.603Z,21.13
2023-01-22T19:26:18.745Z,29.00
2023-01-22T19:28:47.945Z,30.77
2023-01-22T19:31:46.507Z,24.15
2023-01-22T19:34:16.584Z,25.33
2023-01-22T19:36:43.332Z,19.60
2023-01-22T19:39:12.898Z,27.58
2023-01-22T19:41:40.840Z,25.35
2023-01-22T19:44:11.067Z,30.25
2023-01-22T19:46:39.063Z,27.33
2023-01-22T19:49:06.910Z,25.55
2023-01-22T19:51:34.181Z,18.83
2023-01-22T19:54:02.132Z,25.80
2023-01-22T19:56:30.883Z,27.65
2023-01-22T19:59:00.301Z,25.13
2023-01-22T20:01:27.292Z,23.40
2023-01-22T20:03:55.700Z,27.15
2023-01-22T20:06:23.429Z,25.58
2023-01-22T20:08:50.713Z,21.10
2023-01-22T20:11:17.723Z,25.70
2023-01-22T20:13:44.761Z,26.23
2023-01-22T20:16:30.162Z,19.67
2023-01-22T20:18:58.083Z,24.58
2023-01-22T20:21:26.966Z,22.10
2023-01-22T20:23:53.975Z,27.65
2023-01-22T20:26:21.648Z,24.70
2023-01-22T20:28:48.672Z,23.58
2023-01-22T20:31:20.023Z,27.83
2023-01-22T20:33:46.871Z,27.02
2023-01-22T20:36:17.600Z,21.30
2023-01-22T20:38:45.903Z,24.27
2023-01-22T20:41:13.563Z,21.73
2023-01-22T20:43:42.159Z,32.10
2023-01-22T20:46:12.587Z,27.83
2023-01-22T20:48:39.909Z,32.03
2023-01-22T20:51:17.957Z,28.00
2023-01-22T20:53:46.352Z,27.75
2023-01-22T20:56:18.714Z,28.67
2023-01-22T20:58:45.451Z,31.02
2023-01-22T21:01:15.732Z,23.50
2023-01-22T21:03:43.763Z,31.77
2023-01-22T21:06:13.904Z,32.65
2023-01-22T21:08:41.643Z,28.90
2023-01-22T21:11:11.386Z,30.00
2023-01-22T21:13:38.276Z,32.63
2023-01-22T21:16:09.923Z,28.45
2023-01-22T21:18:41.379Z,29.45
2023-01-22T21:21:09.026Z,29.52
2023-01-22T21:23:37.144Z,29.63
2023-01-22T21:26:09.497Z,32.15
2023-01-22T21:28:36.597Z,31.73
2023-01-22T21:31:13.260Z,26.83
2023-01-22T21:33:40.739Z,25.52
2023-01-22T21:36:08.605Z,28.27
2023-01-22T21:38:35.459Z,31.30
2023-01-22T21:41:13.363Z,29.08
2023-01-22T21:44:00.543Z,23.98
2023-01-22T21:46:30.083Z,27.55
2023-01-22T21:48:59.086Z,27.10
2023-01-22T21:51:26.759Z,28.80
2023-01-22T21:53:55.817Z,28.83
2023-01-22T21:56:23.249Z,27.65
2023-01-22T21:58:49.903Z,26.52
2023-01-22T22:01:21.042Z,28.08
2023-01-22T22:03:48.020Z,22.45
2023-01-22T22:06:14.781Z,22.95
2023-01-22T22:08:43.566Z,24.50
2023-01-22T22:11:11.554Z,23.10
2023-01-22T22:13:38.986Z,26.23
2023-01-22T22:16:08.118Z,26.75
2023-01-22T22:18:35.808Z,30.15
2023-01-22T22:21:04.805Z,24.90
2023-01-22T22:23:32.143Z,25.58
2023-01-22T22:25:59.077Z,26.73
2023-01-22T22:28:25.712Z,26.70
2023-01-22T22:30:52.668Z,27.42
2023-01-22T22:33:19.605Z,31.02
2023-01-22T22:35:46.801Z,25.17
2023-01-22T22:38:14.756Z,30.63
2023-01-22T22:40:41.751Z,23.20
2023-01-22T22:43:09.085Z,29.08
2023-01-22T22:45:37.738Z,30.67
2023-01-22T22:48:05.286Z,21.52
2023-01-22T22:50:32.019Z,19.67
2023-01-22T22:52:58.737Z,23.65
2023-01-22T22:55:28.705Z,21.48
2023-01-22T22:57:55.504Z,25.70
2023-01-22T23:00:22.538Z,26.35
2023-01-22T23:02:49.247Z,23.52
2023-01-22T23:05:15.963Z,27.42
2023-01-22T23:07:42.731Z,23.10
2023-01-22T23:10:28.960Z,24.42
2023-01-22T23:13:00.441Z,21.70
2023-01-22T23:15:28.730Z,28.20
2023-01-22T23:17:56.660Z,24.85
2023-01-22T23:20:24.824Z,23.00
2023-01-22T23:22:57.459Z,21.75
2023-01-22T23:25:24.739Z,26.92
2023-01-22T23:27:51.972Z,21.90
2023-01-22T23:30:19.172Z,21.20
2023-01-22T23:32:45.981Z,22.05
2023-01-22T23:35:12.749Z,20.85
2023-01-22T23:37:42.110Z,22.73
2023-01-22T23:42:35.626Z,23.67
2023-01-22T23:45:02.318Z,22.95
2023-01-22T23:47:30.689Z,22.08
2023-01-22T23:49:57.344Z,21.58
2023-01-22T23:52:24.053Z,24.65
2023-01-22T23:54:50.729Z,23.20
2023-01-22T23:57:17.468Z,18.08
2023-01-22T23:59:44.178Z,20.52
